createdAt,value
2018-01-29T00:01:56.735Z,9.23
2018-01-29T00:04:22.960Z,9.80
2018-01-29T00:06:49.147Z,9.30
2018-01-29T00:09:16.068Z,13.70
2018-01-29T00:11:42.260Z,11.77
2018-01-29T00:14:08.444Z,14.50
2018-01-29T00:16:34.593Z,10.37
2018-01-29T00:19:01.544Z,15.47
2018-01-29T00:21:29.203Z,14.43
2018-01-29T00:23:55.403Z,11.77
2018-01-29T00:26:21.588Z,12.23
2018-01-29T00:28:48.516Z,13.27
2018-01-29T00:31:14.692Z,13.87
2018-01-29T00:33:41.592Z,16.23
2018-01-29T00:36:07.775Z,14.37
2018-01-29T00:38:33.956Z,19.87
2018-01-29T00:41:00.140Z,17.60
2018-01-29T00:43:27.042Z,16.40
2018-01-29T00:45:53.219Z,15.67
2018-01-29T00:48:19.448Z,17.13
2018-01-29T00:50:46.380Z,18.77
2018-01-29T00:53:13.305Z,16.83
2018-01-29T00:55:39.482Z,17.07
2018-01-29T00:58:05.752Z,18.17
2018-01-29T01:00:32.151Z,13.83
2018-01-29T01:02:59.052Z,14.43
2018-01-29T01:05:25.250Z,13.63
2018-01-29T01:07:51.438Z,14.67
2018-01-29T01:10:17.621Z,19.50
2018-01-29T01:12:43.807Z,13.07
2018-01-29T01:15:10.019Z,13.93
2018-01-29T01:17:36.204Z,16.17
2018-01-29T01:20:03.145Z,14.87
2018-01-29T01:22:29.319Z,17.00
2018-01-29T01:24:55.495Z,13.83
2018-01-29T01:27:21.661Z,15.13
2018-01-29T01:29:48.596Z,13.00
2018-01-29T01:32:14.792Z,12.90
2018-01-29T01:34:40.975Z,15.57
2018-01-29T01:37:07.888Z,14.33
2018-01-29T01:39:34.111Z,11.83
2018-01-29T01:42:00.307Z,12.67
2018-01-29T01:44:27.211Z,11.60
2018-01-29T01:46:53.427Z,12.70
2018-01-29T01:49:29.819Z,11.47
2018-01-29T01:51:56.008Z,10.87
2018-01-29T01:54:22.190Z,11.73
2018-01-29T01:56:48.359Z,12.10
2018-01-29T01:59:14.604Z,13.90
2018-01-29T02:01:42.324Z,15.50
2018-01-29T02:04:08.518Z,15.20
2018-01-29T02:06:34.767Z,12.13
2018-01-29T02:09:00.972Z,11.30
2018-01-29T02:11:27.888Z,12.60
2018-01-29T02:13:54.825Z,16.93
2018-01-29T02:16:21.042Z,12.73
2018-01-29T02:18:47.267Z,10.87
2018-01-29T02:21:13.507Z,12.83
2018-01-29T02:23:39.711Z,11.13
2018-01-29T02:26:05.916Z,10.20
2018-01-29T02:28:32.868Z,9.40
2018-01-29T02:30:59.080Z,9.50
2018-01-29T02:33:26.007Z,9.20
2018-01-29T02:35:52.191Z,12.37
2018-01-29T02:38:19.112Z,15.70
2018-01-29T02:40:46.044Z,10.53
2018-01-29T02:43:12.262Z,12.53
2018-01-29T02:45:38.459Z,9.00
2018-01-29T02:48:05.382Z,11.67
2018-01-29T02:50:32.331Z,10.43
2018-01-29T02:52:58.527Z,11.80
2018-01-29T02:55:24.712Z,12.00
2018-01-29T02:57:50.942Z,9.00
2018-01-29T03:00:17.326Z,8.80
2018-01-29T03:02:43.755Z,11.30
2018-01-29T03:05:09.936Z,8.23
2018-01-29T03:07:36.123Z,7.90
2018-01-29T03:10:02.316Z,11.73
2018-01-29T03:12:28.488Z,7.10
2018-01-29T03:14:54.659Z,7.40
2018-01-29T03:17:20.831Z,9.57
2018-01-29T03:19:47.759Z,10.87
2018-01-29T03:22:13.935Z,7.33
2018-01-29T03:24:40.864Z,8.53
2018-01-29T03:27:07.789Z,13.93
2018-01-29T03:29:33.973Z,8.67
2018-01-29T03:32:00.149Z,10.67
2018-01-29T03:34:26.359Z,8.10
2018-01-29T03:36:52.534Z,9.90
2018-01-29T03:39:19.473Z,6.33
2018-01-29T03:41:45.676Z,10.33
2018-01-29T03:44:11.858Z,13.50
2018-01-29T03:46:38.028Z,8.03
2018-01-29T03:49:05.837Z,7.83
2018-01-29T03:51:32.026Z,8.07
2018-01-29T03:53:58.423Z,7.63
2018-01-29T03:56:24.591Z,6.90
2018-01-29T03:58:51.508Z,9.20
2018-01-29T04:01:19.536Z,7.83
2018-01-29T04:03:45.924Z,7.70
2018-01-29T04:06:12.128Z,11.23
2018-01-29T04:08:38.313Z,8.20
2018-01-29T04:11:05.268Z,8.63
2018-01-29T04:13:32.192Z,11.10
2018-01-29T04:15:58.369Z,6.43
2018-01-29T04:18:24.553Z,7.40
2018-01-29T04:20:51.497Z,8.30
2018-01-29T04:23:17.691Z,8.00
2018-01-29T04:25:43.883Z,9.27
2018-01-29T04:28:10.052Z,11.83
2018-01-29T04:30:36.268Z,7.63
2018-01-29T04:33:03.207Z,13.37
2018-01-29T04:35:30.308Z,9.90
2018-01-29T04:37:56.482Z,7.83
2018-01-29T04:40:23.415Z,7.13
2018-01-29T04:42:49.573Z,10.00
2018-01-29T04:45:16.516Z,8.67
2018-01-29T04:47:42.699Z,14.07
2018-01-29T04:50:08.885Z,6.57
2018-01-29T04:52:35.088Z,9.80
2018-01-29T04:55:01.269Z,7.57
2018-01-29T04:57:28.216Z,4.70
2018-01-29T04:59:55.127Z,6.83
2018-01-29T05:02:26.288Z,7.37
2018-01-29T05:04:52.763Z,6.20
2018-01-29T05:07:19.680Z,11.73
2018-01-29T05:09:45.845Z,11.80
2018-01-29T05:12:12.767Z,5.10
2018-01-29T05:14:38.945Z,11.87
2018-01-29T05:17:05.851Z,9.93
2018-01-29T05:19:32.056Z,8.10
2018-01-29T05:21:58.224Z,7.70
2018-01-29T05:24:24.407Z,6.53
2018-01-29T05:26:50.569Z,7.43
2018-01-29T05:29:16.757Z,18.37
2018-01-29T05:31:42.955Z,8.83
2018-01-29T05:34:09.133Z,12.07
2018-01-29T05:36:49.118Z,10.00
2018-01-29T05:39:15.309Z,12.10
2018-01-29T05:41:42.221Z,8.77
2018-01-29T05:44:09.936Z,12.77
2018-01-29T05:46:36.152Z,9.50
2018-01-29T05:49:03.082Z,11.37
2018-01-29T05:51:29.271Z,7.93
2018-01-29T05:53:55.441Z,8.53
2018-01-29T05:56:21.621Z,8.00
2018-01-29T05:58:47.876Z,7.27
2018-01-29T06:01:14.019Z,10.20
2018-01-29T06:03:40.294Z,14.97
2018-01-29T06:06:06.760Z,9.40
2018-01-29T06:08:33.683Z,9.40
2018-01-29T06:11:00.605Z,10.40
2018-01-29T06:13:26.776Z,10.57
2018-01-29T06:15:53.676Z,11.43
2018-01-29T06:18:19.906Z,7.10
2018-01-29T06:20:46.068Z,13.93
2018-01-29T06:23:12.224Z,5.50
2018-01-29T06:25:39.127Z,6.80
2018-01-29T06:28:05.321Z,8.30
2018-01-29T06:30:32.232Z,8.23
2018-01-29T06:32:58.379Z,11.23
2018-01-29T06:35:26.055Z,12.97
2018-01-29T06:37:52.247Z,13.77
2018-01-29T06:40:18.429Z,6.57
2018-01-29T06:42:45.350Z,5.50
2018-01-29T06:45:11.552Z,9.67
2018-01-29T06:47:37.724Z,7.80
2018-01-29T06:50:03.913Z,7.20
2018-01-29T06:52:30.072Z,13.83
2018-01-29T06:54:56.249Z,7.53
2018-01-29T06:57:23.202Z,9.40
2018-01-29T06:59:50.144Z,8.83
2018-01-29T07:02:17.060Z,10.03
2018-01-29T07:04:43.306Z,11.13
2018-01-29T07:07:09.770Z,6.17
2018-01-29T07:09:36.704Z,9.40
2018-01-29T07:12:02.900Z,14.27
2018-01-29T07:14:29.092Z,6.67
2018-01-29T07:16:55.997Z,21.50
2018-01-29T07:19:23.059Z,9.23
2018-01-29T07:21:49.267Z,11.07
2018-01-29T07:24:15.425Z,10.90
2018-01-29T07:26:41.595Z,13.20
2018-01-29T07:29:08.512Z,13.87
2018-01-29T07:31:34.699Z,10.00
2018-01-29T07:34:01.595Z,10.97
2018-01-29T07:36:27.767Z,4.70
2018-01-29T07:38:53.981Z,12.00
2018-01-29T07:41:20.976Z,13.60
2018-01-29T07:43:47.166Z,8.27
2018-01-29T07:46:13.355Z,14.37
2018-01-29T07:48:39.562Z,10.90
2018-01-29T07:51:06.468Z,11.80
2018-01-29T07:53:32.653Z,9.80
2018-01-29T07:55:58.833Z,7.00
2018-01-29T07:58:25.029Z,7.80
2018-01-29T08:00:51.198Z,25.17
2018-01-29T08:03:17.395Z,13.20
2018-01-29T08:05:43.665Z,8.63
2018-01-29T08:08:10.640Z,18.60
2018-01-29T08:10:37.576Z,10.73
2018-01-29T08:13:03.749Z,12.13
2018-01-29T08:15:30.681Z,12.83
2018-01-29T08:17:57.636Z,11.70
2018-01-29T08:20:24.575Z,11.60
2018-01-29T08:22:51.528Z,6.37
2018-01-29T08:25:18.507Z,10.90
2018-01-29T08:27:44.701Z,12.10
2018-01-29T08:30:10.908Z,8.70
2018-01-29T08:32:37.104Z,17.43
2018-01-29T08:35:04.033Z,12.20
2018-01-29T08:37:30.976Z,10.07
2018-01-29T08:39:57.941Z,9.93
2018-01-29T08:42:24.869Z,3.90
2018-01-29T08:44:51.064Z,3.13
2018-01-29T08:47:18.072Z,12.60
2018-01-29T08:49:44.253Z,8.70
2018-01-29T08:52:10.447Z,8.43
2018-01-29T08:54:37.376Z,4.53
2018-01-29T08:57:03.572Z,6.73
2018-01-29T08:59:29.801Z,16.60
2018-01-29T09:01:56.029Z,9.67
2018-01-29T09:04:22.212Z,9.80
2018-01-29T09:06:48.473Z,6.00
2018-01-29T09:09:14.701Z,13.13
2018-01-29T09:11:41.621Z,13.00
2018-01-29T09:14:07.841Z,16.13
2018-01-29T09:16:34.057Z,10.67
2018-01-29T09:19:00.232Z,11.07
2018-01-29T09:21:26.425Z,6.77
2018-01-29T09:23:53.429Z,10.47
2018-01-29T09:26:20.361Z,13.73
2018-01-29T09:28:46.598Z,12.40
2018-01-29T09:31:12.777Z,12.53
2018-01-29T09:33:38.997Z,8.40
2018-01-29T09:36:05.912Z,8.30
2018-01-29T09:38:32.136Z,7.73
2018-01-29T09:40:58.324Z,11.20
2018-01-29T09:43:24.516Z,7.80
2018-01-29T09:45:50.728Z,8.90
2018-01-29T09:48:16.914Z,16.60
2018-01-29T09:50:43.841Z,8.30
2018-01-29T09:53:10.142Z,6.60
2018-01-29T09:55:36.341Z,11.97
2018-01-29T09:58:03.257Z,6.00
2018-01-29T10:00:29.453Z,7.13
2018-01-29T10:02:55.657Z,10.20
2018-01-29T10:05:22.616Z,5.10
2018-01-29T10:07:49.095Z,12.27
2018-01-29T10:10:15.451Z,11.23
2018-01-29T10:12:41.684Z,12.23
2018-01-29T10:15:07.841Z,11.53
2018-01-29T10:17:34.029Z,13.53
2018-01-29T10:20:00.234Z,10.07
2018-01-29T10:22:26.448Z,10.80
2018-01-29T10:24:53.372Z,8.33
2018-01-29T10:27:19.556Z,14.30
2018-01-29T10:29:45.768Z,6.43
2018-01-29T10:32:12.664Z,13.03
2018-01-29T10:34:38.852Z,9.97
2018-01-29T10:37:05.812Z,4.93
2018-01-29T10:39:31.996Z,8.17
2018-01-29T10:41:58.205Z,9.03
2018-01-29T10:44:24.389Z,13.80
2018-01-29T10:46:50.563Z,4.73
2018-01-29T10:49:16.752Z,3.07
2018-01-29T10:51:42.977Z,7.90
2018-01-29T10:54:09.157Z,4.13
2018-01-29T10:56:35.346Z,8.50
2018-01-29T10:59:01.659Z,6.83
2018-01-29T11:01:27.873Z,9.93
2018-01-29T11:03:54.062Z,5.13
2018-01-29T11:06:20.247Z,5.23
2018-01-29T11:08:46.487Z,10.83
2018-01-29T11:11:12.721Z,8.00
2018-01-29T11:13:38.895Z,4.20
2018-01-29T11:16:05.074Z,8.03
2018-01-29T11:18:31.257Z,5.03
2018-01-29T11:20:57.440Z,3.33
2018-01-29T11:23:23.633Z,4.70
2018-01-29T11:25:50.564Z,4.00
2018-01-29T11:28:16.783Z,3.37
2018-01-29T11:30:42.999Z,4.97
2018-01-29T11:33:09.175Z,6.73
2018-01-29T11:35:35.384Z,4.13
2018-01-29T11:38:01.564Z,4.97
2018-01-29T11:40:28.474Z,7.50
2018-01-29T11:42:54.680Z,7.80
2018-01-29T11:45:20.855Z,3.87
2018-01-29T11:47:47.056Z,3.37
2018-01-29T11:50:13.251Z,4.83
2018-01-29T11:52:40.156Z,2.40
2018-01-29T11:55:06.340Z,2.17
2018-01-29T11:57:32.554Z,4.70
2018-01-29T11:59:58.710Z,5.90
2018-01-29T12:02:25.611Z,7.37
2018-01-29T12:04:51.808Z,2.43
2018-01-29T12:07:26.032Z,2.77
2018-01-29T12:09:52.916Z,2.23
2018-01-29T12:12:20.165Z,6.87
2018-01-29T12:14:47.186Z,7.83
2018-01-29T12:17:13.390Z,3.37
2018-01-29T12:19:40.300Z,3.20
2018-01-29T12:22:06.576Z,4.20
2018-01-29T12:24:32.756Z,2.13
2018-01-29T12:26:58.943Z,2.50
2018-01-29T12:29:25.858Z,4.67
2018-01-29T12:31:52.195Z,4.13
2018-01-29T12:34:18.235Z,2.23
2018-01-29T12:36:44.472Z,4.00
2018-01-29T12:39:10.658Z,7.03
2018-01-29T12:41:37.556Z,3.73
2018-01-29T12:44:03.756Z,3.63
2018-01-29T12:46:29.973Z,5.93
2018-01-29T12:48:56.868Z,2.43
2018-01-29T12:51:23.048Z,5.07
2018-01-29T12:53:49.270Z,4.53
2018-01-29T12:56:15.457Z,3.67
2018-01-29T12:58:41.640Z,2.20
2018-01-29T13:01:08.671Z,2.00
2018-01-29T13:03:34.824Z,2.87
2018-01-29T13:06:01.733Z,3.53
2018-01-29T13:08:28.007Z,10.83
2018-01-29T13:10:54.975Z,2.93
2018-01-29T13:13:21.444Z,2.13
2018-01-29T13:15:47.709Z,1.23
2018-01-29T13:18:13.906Z,2.33
2018-01-29T13:20:40.076Z,4.03
2018-01-29T13:23:06.275Z,2.03
2018-01-29T13:25:32.532Z,1.67
2018-01-29T13:27:58.771Z,2.13
2018-01-29T13:30:24.998Z,1.50
2018-01-29T13:32:51.204Z,1.93
2018-01-29T13:35:17.378Z,1.87
2018-01-29T13:37:43.565Z,3.80
2018-01-29T13:40:09.708Z,1.97
2018-01-29T13:42:35.891Z,1.53
2018-01-29T13:45:02.874Z,2.67
2018-01-29T13:47:29.051Z,1.93
2018-01-29T13:49:55.208Z,1.23
2018-01-29T13:52:22.928Z,13.80
2018-01-29T13:54:49.092Z,2.70
2018-01-29T13:57:15.264Z,1.43
2018-01-29T13:59:42.196Z,1.60
2018-01-29T14:02:08.379Z,1.83
2018-01-29T14:04:34.658Z,1.57
2018-01-29T14:07:00.859Z,1.47
2018-01-29T14:09:27.032Z,1.63
2018-01-29T14:11:53.271Z,6.67
2018-01-29T14:14:20.207Z,0.87
2018-01-29T14:16:46.372Z,3.13
2018-01-29T14:19:13.316Z,2.90
2018-01-29T14:21:39.487Z,2.97
2018-01-29T14:24:05.677Z,1.47
2018-01-29T14:26:32.609Z,4.10
2018-01-29T14:28:58.812Z,4.90
2018-01-29T14:31:25.004Z,5.93
2018-01-29T14:33:51.933Z,1.63
2018-01-29T14:36:18.135Z,2.13
2018-01-29T14:38:44.297Z,1.60
2018-01-29T14:41:10.495Z,3.07
2018-01-29T14:43:36.691Z,2.27
2018-01-29T14:46:03.595Z,1.67
2018-01-29T14:48:29.764Z,1.73
2018-01-29T14:50:56.687Z,1.40
2018-01-29T14:53:22.895Z,1.90
2018-01-29T14:55:49.051Z,1.33
2018-01-29T14:58:15.268Z,2.30
2018-01-29T15:00:41.443Z,12.87
2018-01-29T15:03:07.620Z,1.97
2018-01-29T15:05:33.825Z,1.10
2018-01-29T15:08:00.032Z,2.27
2018-01-29T15:10:26.980Z,2.00
2018-01-29T15:12:53.245Z,2.00
2018-01-29T15:15:19.679Z,17.27
2018-01-29T15:17:46.635Z,1.63
2018-01-29T15:20:13.556Z,15.03
2018-01-29T15:22:39.723Z,7.20
2018-01-29T15:25:05.908Z,9.63
2018-01-29T15:27:32.096Z,3.23
2018-01-29T15:29:58.995Z,12.73
2018-01-29T15:32:26.708Z,6.57
2018-01-29T15:34:53.611Z,2.97
2018-01-29T15:37:19.800Z,5.23
2018-01-29T15:39:45.968Z,1.70
2018-01-29T15:42:12.175Z,6.50
2018-01-29T15:44:38.344Z,0.90
2018-01-29T15:47:04.508Z,0.53
2018-01-29T15:49:31.435Z,4.20
2018-01-29T15:51:57.635Z,1.03
2018-01-29T15:54:24.540Z,1.20
2018-01-29T15:56:50.787Z,2.00
2018-01-29T15:59:17.700Z,1.77
2018-01-29T16:01:43.896Z,1.60
2018-01-29T16:04:10.804Z,1.93
2018-01-29T16:06:36.975Z,2.40
2018-01-29T16:09:03.131Z,33.27
2018-01-29T16:11:29.327Z,4.87
2018-01-29T16:13:56.281Z,0.60
2018-01-29T16:16:22.508Z,1.53
2018-01-29T16:18:48.708Z,1.43
2018-01-29T16:21:14.864Z,2.17
2018-01-29T16:23:41.034Z,1.23
2018-01-29T16:26:07.232Z,1.37
2018-01-29T16:28:34.152Z,1.87
2018-01-29T16:31:00.322Z,2.13
2018-01-29T16:33:27.247Z,3.00
2018-01-29T16:35:54.175Z,1.17
2018-01-29T16:38:20.347Z,1.20
2018-01-29T16:40:46.507Z,3.03
2018-01-29T16:43:12.667Z,4.23
2018-01-29T16:45:38.836Z,4.60
2018-01-29T16:48:05.071Z,4.10
2018-01-29T16:50:32.735Z,3.17
2018-01-29T16:52:58.922Z,2.50
2018-01-29T16:55:25.123Z,5.20
2018-01-29T16:57:52.052Z,7.00
2018-01-29T17:00:19.028Z,2.57
2018-01-29T17:02:45.972Z,3.80
2018-01-29T17:05:12.934Z,7.50
2018-01-29T17:07:39.847Z,5.50
2018-01-29T17:10:06.033Z,4.10
2018-01-29T17:12:32.212Z,2.63
2018-01-29T17:14:59.260Z,2.90
2018-01-29T17:17:25.638Z,2.03
2018-01-29T17:19:51.876Z,7.50
2018-01-29T17:22:18.798Z,3.40
2018-01-29T17:24:45.011Z,3.50
2018-01-29T17:27:11.220Z,1.63
2018-01-29T17:29:37.378Z,3.03
2018-01-29T17:32:03.560Z,1.30
2018-01-29T17:34:29.735Z,3.80
2018-01-29T17:36:55.888Z,3.30
2018-01-29T17:39:22.069Z,2.73
2018-01-29T17:41:48.964Z,2.93
2018-01-29T17:44:15.139Z,3.70
2018-01-29T17:46:42.059Z,2.03
2018-01-29T17:49:08.301Z,5.63
2018-01-29T17:51:34.471Z,8.77
2018-01-29T17:54:00.677Z,2.83
2018-01-29T17:56:28.342Z,3.70
2018-01-29T17:58:54.508Z,4.97
2018-01-29T18:01:20.715Z,7.10
2018-01-29T18:03:47.691Z,4.70
2018-01-29T18:06:13.865Z,7.53
2018-01-29T18:08:40.084Z,3.17
2018-01-29T18:11:06.261Z,3.97
2018-01-29T18:13:33.180Z,16.07
2018-01-29T18:15:59.547Z,2.63
2018-01-29T18:18:25.755Z,6.73
2018-01-29T18:20:51.928Z,6.60
2018-01-29T18:23:18.881Z,1.90
2018-01-29T18:25:47.012Z,7.10
2018-01-29T18:28:14.297Z,2.40
2018-01-29T18:30:40.665Z,6.43
2018-01-29T18:33:07.651Z,1.53
2018-01-29T18:35:34.608Z,3.60
2018-01-29T18:38:00.831Z,5.20
2018-01-29T18:40:27.009Z,6.97
2018-01-29T18:42:54.656Z,2.50
2018-01-29T18:45:20.918Z,8.47
2018-01-29T18:47:47.132Z,3.70
2018-01-29T18:50:13.287Z,2.30
2018-01-29T18:52:40.212Z,3.00
2018-01-29T18:55:06.407Z,6.83
2018-01-29T18:57:32.572Z,3.30
2018-01-29T18:59:58.819Z,3.63
2018-01-29T19:02:24.963Z,2.77
2018-01-29T19:04:51.136Z,5.23
2018-01-29T19:07:17.300Z,4.90
2018-01-29T19:09:43.467Z,4.60
2018-01-29T19:12:09.783Z,4.00
2018-01-29T19:14:35.993Z,3.93
2018-01-29T19:17:02.227Z,7.53
2018-01-29T19:19:28.430Z,2.90
2018-01-29T19:21:55.384Z,5.43
2018-01-29T19:24:22.272Z,39.33
2018-01-29T19:26:48.443Z,3.90
2018-01-29T19:29:15.359Z,2.50
2018-01-29T19:31:42.648Z,9.93
2018-01-29T19:34:10.415Z,6.57
2018-01-29T19:36:37.999Z,8.33
2018-01-29T19:39:04.924Z,6.13
2018-01-29T19:41:31.076Z,5.57
2018-01-29T19:43:57.387Z,6.40
2018-01-29T19:46:24.301Z,9.33
2018-01-29T19:48:50.467Z,7.63
2018-01-29T19:51:16.677Z,22.07
2018-01-29T19:53:42.852Z,13.33
2018-01-29T19:56:09.019Z,47.73
2018-01-29T19:58:35.224Z,18.13
2018-01-29T20:01:01.409Z,20.27
2018-01-29T20:03:27.596Z,14.77
2018-01-29T20:05:53.779Z,16.43
2018-01-29T20:08:19.935Z,13.60
2018-01-29T20:10:46.077Z,17.47
2018-01-29T20:13:12.307Z,14.07
2018-01-29T20:15:38.488Z,19.63
2018-01-29T20:18:05.643Z,25.53
2018-01-29T20:20:32.005Z,25.43
2018-01-29T20:22:58.159Z,17.23
2018-01-29T20:25:24.315Z,21.07
2018-01-29T20:27:51.262Z,18.30
2018-01-29T20:30:18.175Z,17.63
2018-01-29T20:32:44.366Z,21.03
2018-01-29T20:35:11.552Z,19.17
2018-01-29T20:37:37.715Z,32.03
2018-01-29T20:40:03.880Z,33.70
2018-01-29T20:42:30.062Z,25.00
2018-01-29T20:44:56.237Z,21.60
2018-01-29T20:47:22.424Z,20.40
2018-01-29T20:49:48.619Z,18.30
2018-01-29T20:52:15.515Z,26.00
2018-01-29T20:54:41.664Z,21.10
2018-01-29T20:57:07.880Z,18.50
2018-01-29T20:59:34.036Z,33.93
2018-01-29T21:02:00.187Z,29.13
2018-01-29T21:04:26.356Z,34.63
2018-01-29T21:06:52.534Z,20.20
2018-01-29T21:09:18.724Z,21.87
2018-01-29T21:11:44.899Z,24.00
2018-01-29T21:14:11.083Z,37.70
2018-01-29T21:16:37.267Z,27.33
2018-01-29T21:19:03.516Z,24.80
2018-01-29T21:21:29.720Z,17.20
2018-01-29T21:23:55.940Z,16.07
2018-01-29T21:26:22.131Z,26.67
2018-01-29T21:28:48.291Z,20.63
2018-01-29T21:31:14.482Z,23.60
2018-01-29T21:33:40.647Z,29.10
2018-01-29T21:36:07.541Z,27.03
2018-01-29T21:38:33.721Z,25.30
2018-01-29T21:41:00.754Z,26.73
2018-01-29T21:43:26.906Z,40.93
2018-01-29T21:45:53.842Z,25.10
2018-01-29T21:48:20.017Z,38.00
2018-01-29T21:50:46.214Z,26.47
2018-01-29T21:53:13.135Z,14.73
2018-01-29T21:55:39.301Z,11.70
2018-01-29T21:58:05.490Z,25.13
2018-01-29T22:00:31.664Z,26.83
2018-01-29T22:02:58.617Z,28.00
2018-01-29T22:05:24.770Z,19.20
2018-01-29T22:07:51.668Z,20.50
2018-01-29T22:10:17.901Z,28.90
2018-01-29T22:12:44.046Z,23.60
2018-01-29T22:15:10.300Z,22.20
2018-01-29T22:17:36.486Z,21.83
2018-01-29T22:20:03.007Z,17.87
2018-01-29T22:22:29.389Z,30.53
2018-01-29T22:24:55.564Z,27.40
2018-01-29T22:27:22.475Z,23.17
2018-01-29T22:29:48.638Z,20.60
2018-01-29T22:32:15.531Z,27.43
2018-01-29T22:34:41.708Z,28.80
2018-01-29T22:37:07.882Z,29.20
2018-01-29T22:39:34.052Z,30.27
2018-01-29T22:42:00.227Z,26.43
2018-01-29T22:44:27.121Z,36.03
2018-01-29T22:46:53.306Z,30.10
2018-01-29T22:49:20.214Z,33.67
2018-01-29T22:51:46.383Z,23.43
2018-01-29T22:54:13.308Z,26.40
2018-01-29T22:56:39.460Z,21.33
2018-01-29T22:59:05.620Z,14.77
2018-01-29T23:01:31.783Z,15.43
2018-01-29T23:03:57.935Z,16.73
2018-01-29T23:06:24.100Z,10.60
2018-01-29T23:08:51.020Z,16.23
2018-01-29T23:11:17.160Z,10.80
2018-01-29T23:13:44.815Z,14.70
2018-01-29T23:16:10.976Z,23.00
2018-01-29T23:18:37.137Z,25.63
2018-01-29T23:21:03.345Z,23.50
2018-01-29T23:23:29.792Z,27.13
2018-01-29T23:25:56.701Z,20.97
2018-01-29T23:28:22.934Z,42.70
2018-01-29T23:30:49.136Z,22.93
2018-01-29T23:33:15.285Z,27.13
2018-01-29T23:35:41.447Z,45.53
2018-01-29T23:38:07.609Z,29.13
2018-01-29T23:40:34.522Z,21.10
2018-01-29T23:43:00.722Z,21.80
2018-01-29T23:45:26.920Z,38.50
2018-01-29T23:47:53.067Z,29.13
2018-01-29T23:50:19.236Z,29.20
2018-01-29T23:52:45.486Z,30.17
2018-01-29T23:55:11.616Z,25.20
2018-01-29T23:57:37.780Z,22.97
